Time;durP1;ratioP1;P1;durP2;ratioP2;P2;SDS_P1;SDS_P2;PMS_P1;PMS_P2;Temp;Humidity;BMP_temperature;BMP_pressure;BME280_temperature;BME280_humidity;BME280_pressure;Samples;Min_cycle;Max_cycle;Signal;HPM_P1;HPM_P2
2022/07/16 00:01:28;;;;;;;3.05;1.17;;;19.00;72.00;;;;;;4952601;29;20056;-72
2022/07/16 00:03:55;;;;;;;;;;;19.00;72.00;;;;;;4953109;29;20078;-71
2022/07/16 00:06:22;;;;;;;1.83;0.90;;;19.00;71.30;;;;;;4952191;29;20397;-71
2022/07/16 00:08:48;;;;;;;2.08;1.10;;;19.00;71.90;;;;;;4953414;29;20031;-72
2022/07/16 00:11:14;;;;;;;1.67;1.10;;;18.90;72.10;;;;;;4951148;29;20035;-71
2022/07/16 00:13:40;;;;;;;6.22;1.65;;;19.00;72.20;;;;;;4949556;29;20035;-71
2022/07/16 00:16:09;;;;;;;1.88;0.93;;;19.00;72.40;;;;;;4925354;29;20038;-71
2022/07/16 00:21:20;;;;;;;1.17;0.88;;;18.90;72.50;;;;;;4935068;29;20475;-72
2022/07/16 00:23:46;;;;;;;2.83;1.10;;;18.90;72.60;;;;;;4953383;29;20118;-72
2022/07/16 00:26:11;;;;;;;2.97;1.10;;;18.90;72.60;;;;;;4948242;29;20223;-72
2022/07/16 00:28:37;;;;;;;1.17;0.88;;;18.90;72.70;;;;;;4951965;29;20023;-72
2022/07/16 00:31:03;;;;;;;3.88;1.20;;;18.90;72.80;;;;;;4951431;29;20499;-72
2022/07/16 00:33:28;;;;;;;1.70;0.85;;;18.90;73.50;;;;;;4953647;29;20371;-72
2022/07/16 00:35:54;;;;;;;1.73;1.00;;;18.80;73.00;;;;;;4943757;29;20070;-72
2022/07/16 00:38:19;;;;;;;1.65;1.20;;;18.80;73.10;;;;;;4936107;29;20055;-72
2022/07/16 00:40:45;;;;;;;4.07;1.08;;;18.80;73.10;;;;;;4937612;29;20495;-72
2022/07/16 00:43:12;;;;;;;1.75;0.90;;;18.80;73.10;;;;;;4952678;29;20465;-71
2022/07/16 00:45:38;;;;;;;2.35;1.10;;;18.90;73.20;;;;;;4947206;29;20567;-72
2022/07/16 00:48:04;;;;;;;2.25;1.45;;;18.90;73.20;;;;;;4953061;29;20024;-71
2022/07/16 00:50:31;;;;;;;2.10;1.27;;;18.90;73.20;;;;;;4949249;28;20095;-71
2022/07/16 00:52:58;;;;;;;1.50;1.02;;;18.90;73.40;;;;;;4939467;28;20035;-71
2022/07/16 00:55:24;;;;;;;1.73;1.00;;;18.80;73.30;;;;;;4951475;29;20020;-71
2022/07/16 00:57:49;;;;;;;1.77;1.20;;;18.80;73.40;;;;;;4954949;29;20032;-71
2022/07/16 01:00:15;;;;;;;1.33;1.13;;;18.90;73.50;;;;;;4938627;29;20059;-71
2022/07/16 01:02:41;;;;;;;2.38;1.58;;;18.80;73.50;;;;;;4953727;29;20028;-72
2022/07/16 01:05:07;;;;;;;3.13;1.30;;;18.90;73.70;;;;;;4953257;29;20518;-72
2022/07/16 01:07:33;;;;;;;2.67;1.00;;;18.80;73.70;;;;;;4956443;29;20122;-71
2022/07/16 01:10:01;;;;;;;1.05;0.80;;;18.80;73.70;;;;;;4942438;29;20122;-71
2022/07/16 01:12:27;;;;;;;1.55;1.05;;;18.80;73.80;;;;;;4950746;29;20038;-71
2022/07/16 01:14:52;;;;;;;1.08;0.80;;;18.80;73.90;;;;;;4954333;29;20019;-71
2022/07/16 01:17:18;;;;;;;1.58;1.08;;;18.80;74.00;;;;;;4938058;29;20031;-71
2022/07/16 01:19:43;;;;;;;2.20;0.98;;;18.80;74.10;;;;;;4944760;29;20455;-72
2022/07/16 01:22:10;;;;;;;4.53;1.00;;;18.80;74.10;;;;;;4938050;29;20427;-70
2022/07/16 01:24:39;;;;;;;2.85;1.10;;;18.80;74.20;;;;;;4944160;29;20218;-71
2022/07/16 01:27:05;;;;;;;3.33;1.40;;;18.80;74.30;;;;;;4954455;29;20093;-71
2022/07/16 01:29:30;;;;;;;1.27;0.90;;;18.80;74.30;;;;;;4956359;29;20110;-70
2022/07/16 01:31:56;;;;;;;1.30;1.02;;;18.80;74.30;;;;;;4940528;29;20035;-70
2022/07/16 01:34:24;;;;;;;1.55;0.88;;;18.80;74.40;;;;;;4939114;29;20024;-71
2022/07/16 01:36:54;;;;;;;1.45;1.00;;;18.80;74.50;;;;;;4938221;29;20027;-70
2022/07/16 01:39:20;;;;;;;2.67;1.00;;;18.80;74.60;;;;;;4949070;29;20031;-69
2022/07/16 01:41:54;;;;;;;2.30;1.17;;;18.70;74.60;;;;;;4958129;29;20603;-70
2022/07/16 01:44:20;;;;;;;2.28;1.00;;;18.80;74.80;;;;;;4954878;29;20039;-70
2022/07/16 01:46:46;;;;;;;1.67;0.90;;;18.80;74.80;;;;;;4954532;29;20367;-70
2022/07/16 01:49:11;;;;;;;3.03;1.00;;;18.80;74.80;;;;;;4954961;29;20042;-70
2022/07/16 01:51:37;;;;;;;0.98;0.90;;;18.80;74.90;;;;;;4956359;29;20467;-71
2022/07/16 01:54:02;;;;;;;2.55;1.10;;;18.80;75.00;;;;;;4955120;29;20035;-70
2022/07/16 01:56:28;;;;;;;1.60;1.10;;;18.80;75.00;;;;;;4955833;29;20172;-71
2022/07/16 01:58:53;;;;;;;1.02;0.82;;;18.80;75.10;;;;;;4937959;29;20029;-70
2022/07/16 02:01:19;;;;;;;3.10;0.88;;;18.80;75.20;;;;;;4954790;28;20134;-71
2022/07/16 02:03:44;;;;;;;1.77;1.02;;;18.70;75.20;;;;;;4945433;29;20059;-72
2022/07/16 02:06:10;;;;;;;2.92;1.20;;;18.70;75.30;;;;;;4955730;29;20035;-71
2022/07/16 02:08:35;;;;;;;1.88;1.10;;;18.70;75.30;;;;;;4951535;29;20103;-71
2022/07/16 02:11:01;;;;;;;1.50;0.80;;;18.70;75.40;;;;;;4946045;29;20031;-70
2022/07/16 02:13:27;;;;;;;1.77;0.98;;;18.70;75.40;;;;;;4953069;29;20106;-70
2022/07/16 02:15:52;;;;;;;1.77;0.98;;;18.70;75.50;;;;;;4943742;29;20037;-71
2022/07/16 02:18:18;;;;;;;1.38;1.10;;;18.60;75.40;;;;;;4953557;29;20031;-72
2022/07/16 02:20:43;;;;;;;1.30;1.08;;;18.70;75.50;;;;;;4936555;29;20104;-71
2022/07/16 02:23:09;;;;;;;2.00;1.05;;;18.70;75.60;;;;;;4936908;29;20078;-70
2022/07/16 02:25:34;;;;;;;2.20;1.42;;;18.60;75.70;;;;;;4955936;29;20078;-71
2022/07/16 02:28:06;;;;;;;1.92;0.95;;;18.70;75.70;;;;;;4954814;29;20031;-71
2022/07/16 02:30:36;;;;;;;1.60;0.90;;;18.70;75.80;;;;;;4954199;29;20031;-71
2022/07/16 02:33:02;;;;;;;1.05;0.77;;;18.70;75.80;;;;;;4953904;29;20062;-70
2022/07/16 02:35:28;;;;;;;1.02;0.88;;;18.60;75.70;;;;;;4955536;29;20031;-70
2022/07/16 02:37:53;;;;;;;2.67;1.00;;;18.70;75.80;;;;;;4955053;28;20055;-70
2022/07/16 02:40:19;;;;;;;3.13;1.10;;;18.70;75.80;;;;;;4937892;29;20027;-71
2022/07/16 02:42:44;;;;;;;2.33;1.20;;;18.70;75.80;;;;;;4955182;29;20042;-71
2022/07/16 02:45:11;;;;;;;2.45;0.90;;;18.60;75.80;;;;;;4950435;29;20089;-71
2022/07/16 02:47:37;;;;;;;2.13;1.10;;;18.70;75.80;;;;;;4955278;29;20086;-71
2022/07/16 02:50:03;;;;;;;1.30;0.93;;;18.60;75.80;;;;;;4950323;29;20442;-71
2022/07/16 02:52:28;;;;;;;2.05;1.20;;;18.60;76.00;;;;;;4955150;29;20027;-70
2022/07/16 02:54:54;;;;;;;1.17;0.90;;;18.50;76.00;;;;;;4954258;29;20027;-70
2022/07/16 02:57:19;;;;;;;2.85;1.10;;;18.50;76.00;;;;;;4954980;29;20074;-71
2022/07/16 02:59:45;;;;;;;4.07;1.00;;;18.50;76.10;;;;;;4953654;29;20157;-71
2022/07/16 03:02:12;;;;;;;1.40;1.00;;;18.50;76.20;;;;;;4933931;29;20091;-70
2022/07/16 03:04:38;;;;;;;3.13;0.93;;;18.50;76.20;;;;;;4936967;29;20096;-70
2022/07/16 03:07:03;;;;;;;2.88;1.17;;;18.50;76.20;;;;;;4945737;29;20027;-70
2022/07/16 03:09:29;;;;;;;1.52;1.10;;;18.50;76.10;;;;;;4943443;29;20038;-70
2022/07/16 03:11:54;;;;;;;2.22;1.23;;;18.50;76.20;;;;;;4935530;29;20035;-70
2022/07/16 03:14:20;;;;;;;1.63;0.93;;;18.50;76.20;;;;;;4935493;29;20028;-70
2022/07/16 03:16:46;;;;;;;2.53;1.10;;;18.50;76.40;;;;;;4935516;29;20046;-70
2022/07/16 03:19:12;;;;;;;1.73;1.15;;;18.40;76.40;;;;;;4936410;28;20491;-69
2022/07/16 03:21:38;;;;;;;2.03;1.05;;;18.40;76.50;;;;;;4918238;29;20043;-70
2022/07/16 03:24:03;;;;;;;1.85;1.10;;;18.40;76.70;;;;;;4945557;29;20024;-70
2022/07/16 03:26:29;;;;;;;1.38;1.00;;;18.40;76.70;;;;;;4935796;29;20028;-70
2022/07/16 03:28:55;;;;;;;2.25;1.10;;;18.40;76.70;;;;;;4942206;29;20023;-71
2022/07/16 03:31:20;;;;;;;2.25;0.98;;;18.40;76.60;;;;;;4943971;29;20223;-70
2022/07/16 03:33:46;;;;;;;2.33;1.10;;;18.50;76.60;;;;;;4941409;29;20031;-70
2022/07/16 03:36:11;;;;;;;2.30;1.10;;;18.50;76.40;;;;;;4954541;29;20459;-70
2022/07/16 03:41:21;;;;;;;1.80;0.90;;;18.50;76.30;;;;;;4954617;29;20072;-70
2022/07/16 03:43:46;;;;;;;1.80;1.10;;;18.50;76.20;;;;;;4953167;29;20019;-70
2022/07/16 03:46:13;;;;;;;3.33;1.20;;;18.50;76.10;;;;;;4954235;29;20073;-70
2022/07/16 03:48:39;;;;;;;2.03;1.00;;;18.50;76.00;;;;;;4949799;29;20024;-70
2022/07/16 03:51:06;;;;;;;2.10;1.30;;;18.50;75.80;;;;;;4935388;29;20039;-70
2022/07/16 03:53:32;;;;;;;2.67;1.15;;;18.50;75.70;;;;;;4939050;28;20028;-70
2022/07/16 03:55:58;;;;;;;2.50;0.88;;;18.50;75.80;;;;;;4937401;29;20034;-69
2022/07/16 03:58:23;;;;;;;2.22;0.93;;;18.50;75.70;;;;;;4953475;29;20024;-70
2022/07/16 04:00:49;;;;;;;2.67;1.00;;;18.50;75.70;;;;;;4956440;29;20529;-71
2022/07/16 04:03:14;;;;;;;1.98;0.90;;;18.50;75.70;;;;;;4956878;29;20497;-70
2022/07/16 04:05:40;;;;;;;2.30;1.05;;;18.60;75.80;;;;;;4942489;29;20034;-71
2022/07/16 04:08:05;;;;;;;2.67;1.20;;;18.60;75.70;;;;;;4954392;29;20016;-71
2022/07/16 04:10:31;;;;;;;2.03;1.20;;;18.60;75.90;;;;;;4953711;29;20023;-71
2022/07/16 04:12:56;;;;;;;2.05;1.20;;;18.60;76.00;;;;;;4953551;29;20435;-72
2022/07/16 04:15:22;;;;;;;3.78;1.20;;;18.60;76.40;;;;;;4952928;29;20039;-72
2022/07/16 04:17:48;;;;;;;3.30;1.52;;;18.60;76.70;;;;;;4939345;29;20055;-72
2022/07/16 04:20:13;;;;;;;2.45;1.30;;;18.60;77.00;;;;;;4951757;29;20139;-71
2022/07/16 04:22:39;;;;;;;2.72;1.25;;;18.60;77.30;;;;;;4936874;29;20023;-71
2022/07/16 04:25:05;;;;;;;1.90;1.20;;;18.60;77.60;;;;;;4956833;28;20068;-71
2022/07/16 04:27:31;;;;;;;2.03;1.20;;;18.50;77.50;;;;;;4959271;28;20093;-71
2022/07/16 04:29:56;;;;;;;8.88;1.70;;;18.50;77.80;;;;;;4958750;28;20548;-71
2022/07/16 04:32:22;;;;;;;1.63;1.00;;;18.50;77.90;;;;;;4942919;29;20035;-71
2022/07/16 04:34:47;;;;;;;1.85;1.20;;;18.50;78.10;;;;;;4942586;29;20059;-71
2022/07/16 04:37:13;;;;;;;2.78;1.60;;;18.50;78.20;;;;;;4959441;28;20050;-70
2022/07/16 04:39:39;;;;;;;2.03;1.20;;;18.50;78.30;;;;;;4959291;28;20019;-71
2022/07/16 04:42:04;;;;;;;3.40;1.25;;;18.50;78.40;;;;;;4956577;28;20622;-70
2022/07/16 04:44:30;;;;;;;2.90;1.63;;;18.50;78.40;;;;;;4952637;29;20046;-72
2022/07/16 04:46:55;;;;;;;5.93;1.52;;;18.50;78.30;;;;;;4942379;28;20030;-72
2022/07/16 04:49:21;;;;;;;2.17;1.15;;;18.50;78.10;;;;;;4949640;29;20028;-71
2022/07/16 04:51:47;;;;;;;3.10;1.23;;;18.60;77.90;;;;;;4957634;29;20106;-71
2022/07/16 04:54:12;;;;;;;2.00;1.10;;;18.50;77.60;;;;;;4950635;29;20032;-71
2022/07/16 04:56:38;;;;;;;2.63;1.50;;;18.60;77.50;;;;;;4956106;29;20039;-70
2022/07/16 04:59:03;;;;;;;2.35;1.13;;;18.60;77.40;;;;;;4954269;28;20031;-70
2022/07/16 05:01:29;;;;;;;1.50;1.10;;;18.60;77.20;;;;;;4959460;28;20035;-70
2022/07/16 05:03:54;;;;;;;3.22;1.00;;;18.60;76.90;;;;;;4952451;28;20023;-70
2022/07/16 05:06:20;;;;;;;2.92;1.25;;;18.60;76.70;;;;;;4940772;29;20482;-70
2022/07/16 05:08:45;;;;;;;2.05;1.15;;;18.60;76.60;;;;;;4954371;29;20031;-71
2022/07/16 05:11:11;;;;;;;1.33;1.10;;;18.60;76.30;;;;;;4940658;29;20030;-71
2022/07/16 05:13:36;;;;;;;2.42;1.00;;;18.70;76.20;;;;;;4941227;29;20020;-71
2022/07/16 05:16:02;;;;;;;3.50;1.10;;;18.60;76.20;;;;;;4940749;29;20105;-70
2022/07/16 05:18:28;;;;;;;1.80;1.10;;;18.60;76.20;;;;;;4942920;29;20478;-70
2022/07/16 05:20:54;;;;;;;2.55;1.00;;;18.70;76.20;;;;;;4940309;29;20126;-70
2022/07/16 05:23:20;;;;;;;1.40;1.00;;;18.70;76.20;;;;;;4924280;29;20035;-70
2022/07/16 05:25:45;;;;;;;4.00;2.25;;;18.70;76.20;;;;;;4942216;29;20475;-71
2022/07/16 05:28:11;;;;;;;2.35;1.15;;;18.80;75.90;;;;;;4941622;29;20038;-71
2022/07/16 05:30:36;;;;;;;3.35;1.10;;;18.80;75.90;;;;;;4959491;28;20027;-71
2022/07/16 05:33:02;;;;;;;1.80;1.20;;;18.80;75.80;;;;;;4958250;28;20435;-71
2022/07/16 05:35:27;;;;;;;2.10;1.30;;;18.90;75.80;;;;;;4940144;29;20083;-70
2022/07/16 05:37:53;;;;;;;6.25;1.75;;;18.90;75.50;;;;;;4954081;29;20386;-70
2022/07/16 05:40:19;;;;;;;2.45;1.20;;;19.00;75.40;;;;;;4955491;29;20042;-72
2022/07/16 05:42:44;;;;;;;2.10;1.02;;;19.00;75.40;;;;;;4955623;29;20023;-71
2022/07/16 05:45:10;;;;;;;3.97;1.10;;;19.10;75.30;;;;;;4952054;29;20039;-70
2022/07/16 05:47:36;;;;;;;2.70;1.48;;;19.10;75.10;;;;;;4933837;29;20466;-69
2022/07/16 05:50:04;;;;;;;2.72;1.05;;;19.20;75.30;;;;;;4950115;29;20498;-69
2022/07/16 05:52:31;;;;;;;4.03;1.35;;;19.20;74.80;;;;;;4955384;28;20027;-69
2022/07/16 05:54:57;;;;;;;2.47;1.00;;;19.20;74.60;;;;;;4937626;29;20043;-68
2022/07/16 05:57:22;;;;;;;2.80;1.25;;;19.30;74.50;;;;;;4953924;29;20023;-68
2022/07/16 05:59:48;;;;;;;2.38;1.10;;;19.30;74.30;;;;;;4949752;29;20039;-68
2022/07/16 06:02:13;;;;;;;1.73;1.00;;;19.30;74.30;;;;;;4940322;29;20063;-66
2022/07/16 06:04:39;;;;;;;3.50;1.42;;;19.30;74.30;;;;;;4953510;28;20019;-67
2022/07/16 06:07:04;;;;;;;3.00;1.45;;;19.30;74.10;;;;;;4957680;28;20035;-66
2022/07/16 06:09:30;;;;;;;5.95;1.40;;;19.30;74.20;;;;;;4955846;28;20019;-68
2022/07/16 06:11:56;;;;;;;4.50;1.60;;;19.30;74.80;;;;;;4937203;29;20019;-67
2022/07/16 06:14:21;;;;;;;2.83;1.38;;;19.30;75.40;;;;;;4951307;28;20462;-68
2022/07/16 06:16:48;;;;;;;3.38;1.33;;;19.30;76.40;;;;;;4948836;29;20024;-67
2022/07/16 06:19:13;;;;;;;2.38;1.38;;;19.20;77.10;;;;;;4943913;29;20031;-66
2022/07/16 06:21:39;;;;;;;3.38;1.23;;;19.10;77.90;;;;;;4953556;28;20046;-65
2022/07/16 06:24:05;;;;;;;2.63;1.70;;;19.10;78.40;;;;;;4952961;28;20031;-67
2022/07/16 06:26:30;;;;;;;3.95;1.90;;;19.20;79.10;;;;;;4938731;29;20115;-68
2022/07/16 06:28:56;;;;;;;2.60;1.58;;;19.10;80.00;;;;;;4947693;28;20027;-66
2022/07/16 06:31:21;;;;;;;4.50;1.70;;;19.00;80.80;;;;;;4955501;29;20027;-66
2022/07/16 06:33:47;;;;;;;3.67;1.77;;;19.00;81.40;;;;;;4932669;29;20050;-66
2022/07/16 06:36:12;;;;;;;4.32;2.15;;;18.90;82.10;;;;;;4945509;28;20035;-66
2022/07/16 06:38:38;;;;;;;3.47;1.65;;;18.80;82.40;;;;;;4950093;29;20031;-67
2022/07/16 06:41:04;;;;;;;3.35;1.75;;;18.80;82.80;;;;;;4953486;28;20046;-67
2022/07/16 06:43:29;;;;;;;3.63;1.88;;;18.70;83.30;;;;;;4933259;29;20127;-66
2022/07/16 06:45:55;;;;;;;2.75;1.70;;;18.70;83.90;;;;;;4952729;28;20050;-66
2022/07/16 06:48:20;;;;;;;3.30;1.60;;;18.60;84.40;;;;;;4939201;29;20557;-66
2022/07/16 06:50:46;;;;;;;3.97;1.73;;;18.60;85.00;;;;;;4949908;28;20034;-67
2022/07/16 06:53:11;;;;;;;2.67;1.85;;;18.50;85.30;;;;;;4937097;29;20302;-66
2022/07/16 06:55:37;;;;;;;3.03;1.65;;;18.40;86.40;;;;;;4935259;28;20390;-67
2022/07/16 06:58:03;;;;;;;2.70;1.83;;;18.40;86.10;;;;;;4935465;29;20020;-66
2022/07/16 07:00:28;;;;;;;4.18;1.77;;;18.40;86.90;;;;;;4948405;28;20051;-66
2022/07/16 07:02:54;;;;;;;2.97;1.60;;;18.40;87.40;;;;;;4953742;29;20031;-67
2022/07/16 07:05:19;;;;;;;3.42;1.98;;;18.40;87.80;;;;;;4946015;28;20058;-67
2022/07/16 07:07:45;;;;;;;2.80;1.77;;;18.30;88.20;;;;;;4953319;29;20031;-67
2022/07/16 07:10:11;;;;;;;3.10;1.70;;;18.40;88.60;;;;;;4941272;28;20040;-67
2022/07/16 07:12:36;;;;;;;3.67;2.13;;;18.50;89.10;;;;;;4946704;29;20221;-67
2022/07/16 07:15:04;;;;;;;3.95;1.67;;;18.70;89.50;;;;;;4940270;29;20098;-67
2022/07/16 07:17:29;;;;;;;3.95;1.85;;;18.80;89.60;;;;;;4945608;29;20034;-67
2022/07/16 07:19:55;;;;;;;3.17;1.70;;;18.90;89.80;;;;;;4951595;29;20031;-67
2022/07/16 07:22:20;;;;;;;4.10;2.40;;;19.00;89.80;;;;;;4952903;29;20027;-67
2022/07/16 07:24:46;;;;;;;3.20;1.73;;;19.20;89.70;;;;;;4944689;29;20046;-67
2022/07/16 07:27:11;;;;;;;4.63;2.10;;;19.20;89.50;;;;;;4953478;29;20359;-67
2022/07/16 07:29:37;;;;;;;3.63;2.00;;;19.30;89.40;;;;;;4943560;29;20506;-67
2022/07/16 07:32:04;;;;;;;4.70;2.22;;;19.40;89.50;;;;;;4936698;29;20606;-67
2022/07/16 07:34:29;;;;;;;3.33;1.90;;;19.50;89.40;;;;;;4942909;29;20110;-67
2022/07/16 07:36:55;;;;;;;2.63;1.60;;;19.60;89.40;;;;;;4935740;29;20166;-68
2022/07/16 07:39:21;;;;;;;4.22;2.17;;;19.70;89.60;;;;;;4935834;29;20028;-67
2022/07/16 07:41:46;;;;;;;2.70;1.75;;;19.80;89.60;;;;;;4932818;29;20040;-67
2022/07/16 07:44:12;;;;;;;3.05;2.13;;;19.80;89.70;;;;;;4940421;29;20035;-68
2022/07/16 07:46:37;;;;;;;4.03;2.35;;;19.90;89.90;;;;;;4954342;29;20028;-67
2022/07/16 07:49:03;;;;;;;5.90;2.78;;;19.90;89.50;;;;;;4946020;29;20117;-68
2022/07/16 07:51:28;;;;;;;3.75;2.03;;;20.00;89.40;;;;;;4946654;29;20039;-68
2022/07/16 07:53:56;;;;;;;3.00;1.95;;;20.00;88.80;;;;;;4943009;28;20298;-68
2022/07/16 07:56:22;;;;;;;4.65;2.10;;;20.00;88.40;;;;;;4943744;29;20595;-67
2022/07/16 07:58:48;;;;;;;3.33;1.92;;;20.00;88.10;;;;;;4946222;28;20475;-72
2022/07/16 08:01:13;;;;;;;4.47;2.10;;;19.90;87.60;;;;;;4934078;29;20055;-69
2022/07/16 08:03:39;;;;;;;3.60;2.03;;;19.80;88.10;;;;;;4944896;29;20028;-67
2022/07/16 08:06:04;;;;;;;3.55;1.90;;;19.90;88.60;;;;;;4947072;29;20031;-67
2022/07/16 08:08:30;;;;;;;3.15;1.92;;;19.90;88.40;;;;;;4949610;29;20028;-68
2022/07/16 08:10:55;;;;;;;3.90;2.08;;;19.90;88.30;;;;;;4944133;29;20058;-67
2022/07/16 08:13:21;;;;;;;2.72;1.90;;;19.90;87.80;;;;;;4948147;29;20026;-68
2022/07/16 08:15:46;;;;;;;2.53;1.73;;;20.00;87.60;;;;;;4952806;29;20034;-69
2022/07/16 08:18:12;;;;;;;3.17;1.88;;;20.10;87.70;;;;;;4949930;29;20397;-69
2022/07/16 08:20:38;;;;;;;4.13;2.40;;;20.10;87.60;;;;;;4952330;29;20031;-69
2022/07/16 08:23:04;;;;;;;2.88;1.83;;;20.20;87.70;;;;;;4942973;28;20040;-69
2022/07/16 08:25:44;;;;;;;3.70;2.10;;;20.30;87.10;;;;;;4948268;29;20386;-68
2022/07/16 08:28:10;;;;;;;2.72;1.80;;;20.40;86.60;;;;;;4943380;29;20062;-69
2022/07/16 08:30:36;;;;;;;3.25;1.77;;;20.40;86.30;;;;;;4951492;29;20554;-68
2022/07/16 08:33:02;;;;;;;4.32;1.70;;;20.40;85.90;;;;;;4950831;29;20039;-69
2022/07/16 08:35:27;;;;;;;2.92;1.73;;;20.40;85.80;;;;;;4943207;29;20063;-68
2022/07/16 08:37:56;;;;;;;2.47;1.60;;;20.50;85.00;;;;;;4952148;29;20387;-67
2022/07/16 08:40:23;;;;;;;2.42;1.58;;;20.50;83.90;;;;;;4930342;29;20039;-68
2022/07/16 08:42:50;;;;;;;2.17;1.50;;;20.40;83.10;;;;;;4934297;29;20039;-67
2022/07/16 08:45:18;;;;;;;2.63;1.58;;;20.40;82.00;;;;;;4948101;29;20047;-67
2022/07/16 08:47:43;;;;;;;1.80;1.20;;;20.40;82.40;;;;;;4945609;29;20038;-66
2022/07/16 08:50:13;;;;;;;3.28;1.50;;;20.40;81.50;;;;;;4948478;29;20035;-66
2022/07/16 08:52:47;;;;;;;2.03;1.42;;;20.40;81.50;;;;;;4953053;29;20023;-67
2022/07/16 08:55:12;;;;;;;2.97;1.40;;;20.50;80.80;;;;;;4919214;29;20039;-67
2022/07/16 08:57:39;;;;;;;1.55;1.13;;;20.50;80.10;;;;;;4934157;29;20034;-67
2022/07/16 09:00:08;;;;;;;2.47;1.38;;;20.50;80.30;;;;;;4933961;29;20051;-67
2022/07/16 09:02:34;;;;;;;2.90;1.40;;;20.50;80.10;;;;;;4933587;29;20046;-67
2022/07/16 09:05:00;;;;;;;3.30;1.55;;;20.50;79.80;;;;;;4932084;29;20087;-67
2022/07/16 09:07:26;;;;;;;2.33;1.30;;;20.50;79.30;;;;;;4953271;29;20118;-67
2022/07/16 09:09:52;;;;;;;2.78;1.77;;;20.60;78.60;;;;;;4938507;29;20111;-67
2022/07/16 09:12:42;;;;;;;2.63;1.23;;;20.70;78.30;;;;;;4952642;29;20034;-67
2022/07/16 09:15:33;;;;;;;3.95;1.40;;;20.80;75.90;;;;;;4952373;29;20090;-67
2022/07/16 09:18:08;;;;;;;2.00;1.48;;;20.70;76.40;;;;;;4956022;29;20111;-67
2022/07/16 09:20:34;;;;;;;2.80;1.60;;;20.60;77.00;;;;;;4935680;29;20063;-67
2022/07/16 09:23:00;;;;;;;2.35;1.38;;;20.60;76.60;;;;;;4937180;29;20042;-66
2022/07/16 09:25:25;;;;;;;2.58;1.35;;;20.60;76.20;;;;;;4956922;29;20031;-68
2022/07/16 09:28:00;;;;;;;2.88;1.10;;;20.70;75.30;;;;;;4956750;29;20027;-66
2022/07/16 09:30:27;;;;;;;3.30;1.20;;;20.70;73.90;;;;;;4956334;29;20045;-66
2022/07/16 09:32:54;;;;;;;1.33;0.90;;;20.80;72.50;;;;;;4956617;29;20038;-66
2022/07/16 09:35:20;;;;;;;2.10;1.38;;;20.80;72.20;;;;;;4938219;29;20546;-67
2022/07/16 09:37:48;;;;;;;2.03;1.33;;;20.70;70.70;;;;;;4943557;29;20023;-67
2022/07/16 09:40:27;;;;;;;3.08;1.00;;;20.70;70.20;;;;;;4955011;29;20062;-67
2022/07/16 09:42:53;;;;;;;2.22;1.30;;;20.70;70.40;;;;;;4956489;29;20039;-67
2022/07/16 09:45:20;;;;;;;2.38;1.25;;;20.70;70.40;;;;;;4955155;29;20078;-67
2022/07/16 09:47:46;;;;;;;3.15;1.35;;;20.80;70.20;;;;;;4955045;29;20102;-67
2022/07/16 09:50:12;;;;;;;1.77;1.00;;;20.90;70.40;;;;;;4939012;29;20123;-67
2022/07/16 09:52:38;;;;;;;2.30;1.30;;;21.00;70.90;;;;;;4937277;29;20043;-67
2022/07/16 09:55:05;;;;;;;5.32;1.27;;;21.10;69.80;;;;;;4937345;29;20595;-67
2022/07/16 09:57:31;;;;;;;2.25;1.00;;;21.20;68.90;;;;;;4936863;29;20052;-67
2022/07/16 09:59:58;;;;;;;3.58;1.10;;;21.20;68.30;;;;;;4937209;29;20047;-67
2022/07/16 10:02:23;;;;;;;2.28;1.23;;;21.20;68.20;;;;;;4941381;29;20085;-66
2022/07/16 10:04:50;;;;;;;2.28;1.27;;;21.20;67.40;;;;;;4941453;29;20055;-67
2022/07/16 10:07:19;;;;;;;2.20;1.15;;;21.20;67.70;;;;;;4946148;29;20062;-66
2022/07/16 10:09:45;;;;;;;2.50;1.17;;;21.10;67.40;;;;;;4937434;29;20052;-67
2022/07/16 10:12:14;;;;;;;2.72;1.40;;;21.00;66.80;;;;;;4936718;29;20032;-66
2022/07/16 10:14:45;;;;;;;3.47;1.20;;;21.00;67.10;;;;;;4937470;29;20036;-67
2022/07/16 10:17:20;;;;;;;3.00;1.10;;;20.90;66.20;;;;;;4944944;29;20106;-66
2022/07/16 10:20:00;;;;;;;2.33;1.33;;;20.90;66.60;;;;;;4941919;29;20091;-67
2022/07/16 10:22:34;;;;;;;2.88;1.10;;;20.90;66.80;;;;;;4934978;29;20047;-67
2022/07/16 10:25:00;;;;;;;2.55;1.40;;;21.00;66.10;;;;;;4932266;29;20108;-67
2022/07/16 10:27:35;;;;;;;3.95;2.05;;;21.10;65.40;;;;;;4955703;29;20119;-67
2022/07/16 10:30:33;;;;;;;1.98;1.02;;;21.20;65.70;;;;;;4940228;29;20028;-67
2022/07/16 10:33:07;;;;;;;2.00;1.10;;;21.30;64.70;;;;;;4924825;29;20038;-68
2022/07/16 10:35:40;;;;;;;2.15;1.00;;;21.40;62.80;;;;;;4951695;29;20114;-68
2022/07/16 10:38:07;;;;;;;2.58;1.58;;;21.30;63.00;;;;;;4954515;29;20110;-68
2022/07/16 10:40:33;;;;;;;3.22;1.40;;;21.20;63.80;;;;;;4936453;29;20119;-67
2022/07/16 10:43:19;;;;;;;4.15;1.30;;;21.20;64.10;;;;;;4935898;29;20439;-67
2022/07/16 10:45:55;;;;;;;2.22;1.10;;;21.30;64.10;;;;;;4955438;29;20035;-68
2022/07/16 10:48:26;;;;;;;3.65;1.35;;;21.30;64.10;;;;;;4953874;29;20070;-68
2022/07/16 10:51:17;;;;;;;2.22;1.25;;;21.30;63.60;;;;;;4954352;29;20063;-68
2022/07/16 10:54:01;;;;;;;2.38;1.27;;;21.50;63.60;;;;;;4949892;28;20035;-68
2022/07/16 10:56:48;;;;;;;2.45;1.33;;;21.50;63.70;;;;;;4936065;29;20074;-68
2022/07/16 10:59:20;;;;;;;2.55;1.42;;;21.50;63.90;;;;;;4935437;29;20043;-69
2022/07/16 11:01:48;;;;;;;4.07;1.13;;;21.50;63.60;;;;;;4935953;29;20109;-68
2022/07/16 11:04:15;;;;;;;2.08;1.20;;;21.50;63.10;;;;;;4939363;29;20058;-68
2022/07/16 11:06:47;;;;;;;2.20;1.50;;;21.50;63.60;;;;;;4943692;29;20059;-68
2022/07/16 11:09:13;;;;;;;2.33;1.30;;;21.50;63.50;;;;;;4949984;29;20034;-68
2022/07/16 11:11:40;;;;;;;3.80;1.20;;;21.60;63.50;;;;;;4936615;29;20031;-68
2022/07/16 11:14:08;;;;;;;5.07;1.50;;;21.60;63.20;;;;;;4944195;29;20034;-68
2022/07/16 11:16:35;;;;;;;2.58;1.40;;;21.70;63.40;;;;;;4954895;29;20043;-67
2022/07/16 11:19:02;;;;;;;4.18;1.33;;;21.80;63.10;;;;;;4953905;29;20027;-67
2022/07/16 11:21:28;;;;;;;5.82;1.45;;;21.80;62.30;;;;;;4937441;29;20372;-67
2022/07/16 11:23:59;;;;;;;2.13;1.27;;;21.80;61.30;;;;;;4937938;29;20035;-67
2022/07/16 11:26:25;;;;;;;2.67;1.50;;;21.80;61.50;;;;;;4940511;29;20035;-68
2022/07/16 11:28:55;;;;;;;2.97;1.20;;;21.80;61.20;;;;;;4953937;29;20023;-68
2022/07/16 11:31:35;;;;;;;3.80;1.10;;;21.70;61.20;;;;;;4949943;29;20055;-69
2022/07/16 11:34:04;;;;;;;3.05;1.05;;;21.70;61.20;;;;;;4942417;29;20023;-68
2022/07/16 11:36:32;;;;;;;3.45;1.35;;;21.70;60.60;;;;;;4953670;29;20426;-68
2022/07/16 11:39:02;;;;;;;2.58;1.23;;;21.80;60.20;;;;;;4952775;28;20503;-69
2022/07/16 11:41:28;;;;;;;2.28;1.20;;;21.80;60.70;;;;;;4935244;29;20048;-68
2022/07/16 11:43:54;;;;;;;2.60;1.40;;;21.80;59.40;;;;;;4936245;29;20027;-68
2022/07/16 11:46:28;;;;;;;2.33;1.00;;;21.80;59.10;;;;;;4948665;29;20138;-68
2022/07/16 11:48:55;;;;;;;3.08;1.33;;;21.80;59.00;;;;;;4947426;29;20086;-68
2022/07/16 11:51:21;;;;;;;2.35;1.30;;;21.80;59.40;;;;;;4935093;29;20121;-68
2022/07/16 11:53:51;;;;;;;3.03;1.50;;;21.90;58.90;;;;;;4940800;29;20118;-68
2022/07/16 11:56:34;;;;;;;3.22;1.15;;;22.00;58.00;;;;;;4936606;29;20035;-68
2022/07/16 11:59:01;;;;;;;2.35;1.20;;;22.00;57.70;;;;;;4951625;29;20082;-69
2022/07/16 12:01:31;;;;;;;2.15;1.05;;;21.90;56.90;;;;;;4953633;29;20035;-68
2022/07/16 12:03:57;;;;;;;3.17;1.20;;;21.90;55.90;;;;;;4953377;29;20460;-68
2022/07/16 12:06:22;;;;;;;6.57;1.33;;;21.90;56.40;;;;;;4953896;29;20031;-69
2022/07/16 12:08:53;;;;;;;1.65;1.05;;;21.80;55.60;;;;;;4953209;29;20463;-68
2022/07/16 12:11:18;;;;;;;1.58;1.00;;;21.80;55.30;;;;;;4953966;29;20042;-68
2022/07/16 12:13:54;;;;;;;2.42;1.20;;;21.80;54.50;;;;;;4948445;29;20027;-68
2022/07/16 12:16:20;;;;;;;4.50;1.40;;;21.70;54.00;;;;;;4934855;29;20525;-68
2022/07/16 12:19:21;;;;;;;2.45;1.50;;;21.70;54.00;;;;;;4940765;29;20035;-68
2022/07/16 12:21:48;;;;;;;2.67;1.23;;;21.80;53.30;;;;;;4913321;29;20032;-68
2022/07/16 12:24:14;;;;;;;1.80;0.93;;;21.90;53.20;;;;;;4920358;29;20142;-68
2022/07/16 12:26:41;;;;;;;2.53;1.17;;;22.00;53.00;;;;;;4941591;29;20106;-68
2022/07/16 12:29:09;;;;;;;2.42;1.30;;;22.20;54.00;;;;;;4945129;29;20118;-68
2022/07/16 12:31:38;;;;;;;2.03;1.20;;;22.30;53.70;;;;;;4934569;29;20031;-68
2022/07/16 12:34:05;;;;;;;1.92;1.10;;;22.50;53.50;;;;;;4922123;29;20054;-68
2022/07/16 12:36:33;;;;;;;2.08;0.90;;;22.60;53.30;;;;;;4934568;29;20059;-68
2022/07/16 12:39:10;;;;;;;2.67;1.25;;;22.70;53.20;;;;;;4934621;29;20051;-68
2022/07/16 12:41:41;;;;;;;3.35;0.98;;;22.80;53.10;;;;;;4934461;29;20403;-68
2022/07/16 12:44:09;;;;;;;3.40;1.20;;;22.70;52.30;;;;;;4935821;29;20024;-68
2022/07/16 12:46:44;;;;;;;2.55;1.27;;;22.60;52.30;;;;;;4937859;29;20031;-68
2022/07/16 12:49:13;;;;;;;4.38;1.67;;;22.50;52.00;;;;;;4947212;29;20091;-69
2022/07/16 12:52:05;;;;;;;3.45;1.60;;;22.40;51.40;;;;;;4956735;29;20023;-68
2022/07/16 12:58:47;;;;;;;1.75;1.20;;;22.30;52.30;;;;;;4952693;29;20054;-68